Airfield :
LOGIN :

Register | Disclaimer

   EN    FR    IT 

 










Legend :    VFR   Marginal VFR   IFR   Intensive IFR   Very Intensive IFR
Visi :
Ceiling :
>= 8 km
>= 3000ft
5 to 8 km
1000 to 3000 ft
1500m to 5 km
500 to 1000 ft
800 to 1500m
200 to 500 ft
< 800m
< 200 ft
Symbols :   Thunderstorms  Fog  Heavy snow  Heavy precipitations  Wind > 20 kt
SIGMETs :     Misc.  Thunderstorms  Icing  Turbulence  Mountain Waves  Volcanic Ashes







- Airport Elevation : 909 ft
- IATA code : KSF


EDVK - Kassel Calden

CURRENT METAR :
  • 251950Z 30006KT 9999 FEW005 SCT043 07/06 Q1012 RERA

EXPIRED METARs :
  • 251920Z 26003KT 9999 FEW032 09/07 Q1012
  • 251820Z 27004KT 250V310 9999 SCT032 BKN078 11/07 Q1011
  • 251750Z 31007KT 9999 -RA FEW024 SCT042 11/08 Q1011
  • 251720Z 28006KT 9999 FEW024 BKN045 11/08 Q1011

TAF TAF EDVK
Valid from the 25 at 18:00 until the 26 at 03:00 UTC


251700Z 2518/2603 29013KT 9999 SCT030
BECMG 2518/2519 26008KT
PROB30
TEMPO 2518/2520 SHRA BKN030TCU
No reported NOTAMs for that airfield.



MET'MAP, your aeronautical weather chart ! - Copyright ORBIFLY December 2007 - Disclaimer

ORBIFLY MET'MAP TEAM :

Programming & Development : Alexandra Zaïnal
Concept & Development : Baudouin d'Aumeries
Co-Development & Prog : Marc-Olivier Méhu
Technical & hardware support : Manuel Goepfert

Contact : metmap@orbifly.com




SOURCES & CREDITS :

   NOAA